createdAt,value
2022-10-10T00:01:01.637Z,2.03
2022-10-10T00:03:29.157Z,1.70
2022-10-10T00:05:56.638Z,1.73
2022-10-10T00:08:24.141Z,2.13
2022-10-10T00:10:52.974Z,1.92
2022-10-10T00:13:20.450Z,1.65
2022-10-10T00:15:50.254Z,1.80
2022-10-10T00:18:17.964Z,2.13
2022-10-10T00:20:45.582Z,2.15
2022-10-10T00:23:13.020Z,1.70
2022-10-10T00:25:40.514Z,2.20
2022-10-10T00:28:09.356Z,1.70
2022-10-10T00:30:36.910Z,1.80
2022-10-10T00:33:04.358Z,1.98
2022-10-10T00:35:32.211Z,1.98
2022-10-10T00:37:59.666Z,1.67
2022-10-10T00:40:27.235Z,1.50
2022-10-10T00:42:54.775Z,1.77
2022-10-10T00:45:29.861Z,1.92
2022-10-10T00:47:59.278Z,2.13
2022-10-10T00:50:26.954Z,2.28
2022-10-10T00:52:54.619Z,1.88
2022-10-10T00:55:22.287Z,3.15
2022-10-10T00:57:50.389Z,1.70
2022-10-10T01:00:17.956Z,2.25
2022-10-10T01:02:46.805Z,2.35
2022-10-10T01:05:14.246Z,2.22
2022-10-10T01:07:42.447Z,2.00
2022-10-10T01:10:12.617Z,2.05
2022-10-10T01:12:45.220Z,1.70
2022-10-10T01:15:16.326Z,1.95
2022-10-10T01:17:46.180Z,1.95
2022-10-10T01:20:27.563Z,1.70
2022-10-10T01:23:07.758Z,2.42
2022-10-10T01:25:40.950Z,1.80
2022-10-10T01:28:11.919Z,2.05
2022-10-10T01:30:41.336Z,1.67
2022-10-10T01:33:11.674Z,2.42
2022-10-10T01:35:43.749Z,1.75
2022-10-10T01:38:14.901Z,1.92
2022-10-10T01:40:45.692Z,2.03
2022-10-10T01:43:13.357Z,2.05
2022-10-10T01:45:45.905Z,2.03
2022-10-10T01:48:14.149Z,2.15
2022-10-10T01:50:45.657Z,1.95
2022-10-10T01:53:17.454Z,2.20
2022-10-10T01:55:57.322Z,2.03
2022-10-10T01:58:45.474Z,2.05
2022-10-10T02:01:17.999Z,1.73
2022-10-10T02:03:47.139Z,1.85
2022-10-10T02:06:20.016Z,2.28
2022-10-10T02:08:49.299Z,2.10
2022-10-10T02:11:16.784Z,2.10
2022-10-10T02:13:46.443Z,2.30
2022-10-10T02:16:17.193Z,2.63
2022-10-10T02:18:46.015Z,2.20
2022-10-10T02:21:14.532Z,1.95
2022-10-10T02:23:42.866Z,2.15
2022-10-10T02:26:11.513Z,1.88
2022-10-10T02:28:40.978Z,2.20
2022-10-10T02:31:10.564Z,2.13
2022-10-10T02:33:42.686Z,2.50
2022-10-10T02:36:10.494Z,2.30
2022-10-10T02:38:38.661Z,2.20
2022-10-10T02:41:07.953Z,2.17
2022-10-10T02:43:35.757Z,2.10
2022-10-10T02:46:04.648Z,2.58
2022-10-10T02:48:32.133Z,2.60
2022-10-10T02:51:01.210Z,3.00
2022-10-10T02:53:28.693Z,2.65
2022-10-10T02:55:56.208Z,2.92
2022-10-10T02:58:23.683Z,2.55
2022-10-10T03:00:51.344Z,3.40
2022-10-10T03:03:18.830Z,2.83
2022-10-10T03:05:47.104Z,2.45
2022-10-10T03:08:16.043Z,2.63
2022-10-10T03:10:43.844Z,2.33
2022-10-10T03:13:11.354Z,2.78
2022-10-10T03:15:38.919Z,2.70
2022-10-10T03:18:06.547Z,2.22
2022-10-10T03:20:34.027Z,2.78
2022-10-10T03:23:01.486Z,2.78
2022-10-10T03:25:30.346Z,2.10
2022-10-10T03:27:57.844Z,2.30
2022-10-10T03:30:25.318Z,2.55
2022-10-10T03:32:53.335Z,2.90
2022-10-10T03:35:21.034Z,2.85
2022-10-10T03:37:48.478Z,2.20
2022-10-10T03:40:16.020Z,2.67
2022-10-10T03:42:44.825Z,2.30
2022-10-10T03:45:12.319Z,2.25
2022-10-10T03:47:39.843Z,2.42
2022-10-10T03:50:07.800Z,2.63
2022-10-10T03:52:35.286Z,2.40
2022-10-10T03:55:02.854Z,2.22
2022-10-10T03:57:30.351Z,2.83
2022-10-10T03:59:59.160Z,2.90
2022-10-10T04:02:26.641Z,2.58
2022-10-10T04:04:54.142Z,2.50
2022-10-10T04:07:21.737Z,2.72
2022-10-10T04:09:49.273Z,2.65
2022-10-10T04:12:16.729Z,2.30
2022-10-10T04:14:44.187Z,2.88
2022-10-10T04:17:13.078Z,2.80
2022-10-10T04:19:40.632Z,2.53
2022-10-10T04:22:11.154Z,2.38
2022-10-10T04:24:38.948Z,2.40
2022-10-10T04:27:06.506Z,2.08
2022-10-10T04:29:34.045Z,2.40
2022-10-10T04:32:01.546Z,2.10
2022-10-10T04:34:30.360Z,2.33
2022-10-10T04:36:57.850Z,2.53
2022-10-10T04:39:25.406Z,2.42
2022-10-10T04:41:52.880Z,2.90
2022-10-10T04:44:20.458Z,2.35
2022-10-10T04:46:47.987Z,2.50
2022-10-10T04:49:15.443Z,2.60
2022-10-10T04:51:44.301Z,2.78
2022-10-10T04:54:11.819Z,4.03
2022-10-10T04:56:42.422Z,3.08
2022-10-10T04:59:10.413Z,2.25
2022-10-10T05:01:38.093Z,3.40
2022-10-10T05:04:05.660Z,2.72
2022-10-10T05:06:35.738Z,2.65
2022-10-10T05:09:04.621Z,2.83
2022-10-10T05:11:32.104Z,2.35
2022-10-10T05:13:59.967Z,2.17
2022-10-10T05:16:27.502Z,2.47
2022-10-10T05:18:55.060Z,2.25
2022-10-10T05:21:22.598Z,1.95
2022-10-10T05:23:50.134Z,2.22
2022-10-10T05:26:20.103Z,2.22
2022-10-10T05:28:47.692Z,2.50
2022-10-10T05:31:15.219Z,1.85
2022-10-10T05:33:42.742Z,2.75
2022-10-10T05:36:12.908Z,2.40
2022-10-10T05:38:40.818Z,2.83
2022-10-10T05:41:10.671Z,1.75
2022-10-10T05:43:43.179Z,1.85
2022-10-10T05:46:10.841Z,1.85
2022-10-10T05:48:38.341Z,2.10
2022-10-10T05:51:05.931Z,1.95
2022-10-10T05:53:36.551Z,2.30
2022-10-10T05:56:04.016Z,2.10
2022-10-10T05:58:31.819Z,1.95
2022-10-10T06:01:05.277Z,2.03
2022-10-10T06:03:33.567Z,2.33
2022-10-10T06:06:01.322Z,2.00
2022-10-10T06:08:31.207Z,1.75
2022-10-10T06:11:02.987Z,1.80
2022-10-10T06:13:30.683Z,2.40
2022-10-10T06:15:58.746Z,1.95
2022-10-10T06:18:27.777Z,2.10
2022-10-10T06:20:55.268Z,4.15
2022-10-10T06:23:23.312Z,1.83
2022-10-10T06:25:52.651Z,1.90
2022-10-10T06:28:24.591Z,1.83
2022-10-10T06:30:52.373Z,1.88
2022-10-10T06:33:20.144Z,1.38
2022-10-10T06:35:49.747Z,1.42
2022-10-10T06:38:18.654Z,1.30
2022-10-10T06:40:50.961Z,1.40
2022-10-10T06:43:18.616Z,1.42
2022-10-10T06:45:47.102Z,1.02
2022-10-10T06:48:15.612Z,1.20
2022-10-10T06:50:43.394Z,3.97
2022-10-10T06:53:12.186Z,1.50
2022-10-10T06:55:39.970Z,1.52
2022-10-10T06:58:08.008Z,1.30
2022-10-10T07:00:35.513Z,1.83
2022-10-10T07:03:12.099Z,1.35
2022-10-10T07:05:41.394Z,1.42
2022-10-10T07:08:10.071Z,0.95
2022-10-10T07:10:38.935Z,1.27
2022-10-10T07:13:06.526Z,1.50
2022-10-10T07:15:34.913Z,1.30
2022-10-10T07:18:03.827Z,1.40
2022-10-10T07:20:31.715Z,1.48
2022-10-10T07:22:59.249Z,1.35
2022-10-10T07:25:27.020Z,0.90
2022-10-10T07:27:57.050Z,2.17
2022-10-10T07:30:25.237Z,0.90
2022-10-10T07:32:55.875Z,1.25
2022-10-10T07:35:26.744Z,1.17
2022-10-10T07:38:02.623Z,1.13
2022-10-10T07:40:32.320Z,1.83
2022-10-10T07:43:01.181Z,1.10
2022-10-10T07:45:28.638Z,0.98
2022-10-10T07:47:56.403Z,0.90
2022-10-10T07:50:26.060Z,0.98
2022-10-10T07:52:53.785Z,1.60
2022-10-10T07:55:24.256Z,0.80
2022-10-10T07:57:53.617Z,0.90
2022-10-10T08:00:22.709Z,1.00
2022-10-10T08:02:52.244Z,1.00
2022-10-10T08:05:19.777Z,1.20
2022-10-10T08:07:51.493Z,0.80
2022-10-10T08:10:19.314Z,1.10
2022-10-10T08:12:46.830Z,0.77
2022-10-10T08:15:14.378Z,0.98
2022-10-10T08:17:43.253Z,1.00
2022-10-10T08:20:11.349Z,1.45
2022-10-10T08:22:38.856Z,1.45
2022-10-10T08:25:06.897Z,1.10
2022-10-10T08:27:34.803Z,1.20
2022-10-10T08:30:02.495Z,1.10
2022-10-10T08:32:30.045Z,1.10
2022-10-10T08:34:59.910Z,0.97
2022-10-10T08:37:32.608Z,0.80
2022-10-10T08:40:03.447Z,0.93
2022-10-10T08:42:35.322Z,0.90
2022-10-10T08:45:04.364Z,0.93
2022-10-10T08:47:40.097Z,1.00
2022-10-10T08:50:19.738Z,0.90
2022-10-10T08:52:49.599Z,1.00
2022-10-10T08:55:18.598Z,0.98
2022-10-10T08:57:49.694Z,0.98
2022-10-10T09:00:17.820Z,1.13
2022-10-10T09:02:54.148Z,1.00
2022-10-10T09:05:33.204Z,1.77
2022-10-10T09:08:13.388Z,0.93
2022-10-10T09:10:45.152Z,1.00
2022-10-10T09:13:18.265Z,0.63
2022-10-10T09:15:50.000Z,0.85
2022-10-10T09:18:21.394Z,0.80
2022-10-10T09:20:57.897Z,0.63
2022-10-10T09:23:35.613Z,0.70
2022-10-10T09:26:08.815Z,0.60
2022-10-10T09:28:40.068Z,0.60
2022-10-10T09:31:13.137Z,0.52
2022-10-10T09:33:48.826Z,0.80
2022-10-10T09:36:20.334Z,0.70
2022-10-10T09:38:48.946Z,0.80
2022-10-10T09:41:23.948Z,0.70
2022-10-10T09:43:58.124Z,0.68
2022-10-10T09:46:34.604Z,0.65
2022-10-10T09:49:02.655Z,0.70
2022-10-10T09:51:42.547Z,0.80
2022-10-10T09:54:10.633Z,0.70
2022-10-10T09:56:53.321Z,1.00
2022-10-10T09:59:38.574Z,0.80
2022-10-10T10:02:13.976Z,0.65
2022-10-10T10:04:41.586Z,0.63
2022-10-10T10:07:19.240Z,0.68
2022-10-10T10:09:48.428Z,0.90
2022-10-10T10:12:16.656Z,0.70
2022-10-10T10:19:39.698Z,2.00
2022-10-10T10:22:26.536Z,0.73
2022-10-10T10:24:56.093Z,0.90
2022-10-10T10:27:28.915Z,0.60
2022-10-10T10:29:57.308Z,0.70
2022-10-10T10:32:34.463Z,0.60
2022-10-10T10:35:15.405Z,0.90
2022-10-10T10:37:49.574Z,0.60
2022-10-10T10:40:26.617Z,0.80
2022-10-10T10:43:02.014Z,0.50
2022-10-10T10:45:35.022Z,0.60
2022-10-10T10:48:10.339Z,0.40
2022-10-10T10:50:45.266Z,0.60
2022-10-10T10:56:05.817Z,1.00
2022-10-10T11:01:51.803Z,0.50
2022-10-10T11:05:18.503Z,0.70
2022-10-10T11:07:19.446Z,0.43
2022-10-10T11:09:54.045Z,0.60
2022-10-10T11:12:39.824Z,0.65
2022-10-10T11:15:12.413Z,0.73
2022-10-10T11:17:41.472Z,0.60
2022-10-10T11:20:12.640Z,1.20
2022-10-10T11:22:46.370Z,0.70
2022-10-10T11:25:16.962Z,0.60
2022-10-10T11:27:49.777Z,0.68
2022-10-10T11:30:18.987Z,0.50
2022-10-10T11:32:51.859Z,0.63
2022-10-10T11:35:23.701Z,0.60
2022-10-10T11:37:53.902Z,0.85
2022-10-10T11:40:33.545Z,0.60
2022-10-10T11:43:04.506Z,0.80
2022-10-10T11:45:33.474Z,1.00
2022-10-10T11:48:04.388Z,0.75
2022-10-10T11:50:34.744Z,0.85
2022-10-10T11:53:06.393Z,0.70
2022-10-10T11:55:38.905Z,0.65
2022-10-10T11:58:25.638Z,0.80
2022-10-10T12:00:55.780Z,0.50
2022-10-10T12:03:25.066Z,0.60
2022-10-10T12:05:54.429Z,1.02
2022-10-10T12:08:23.714Z,0.93
2022-10-10T12:10:54.446Z,0.80
2022-10-10T12:13:29.230Z,0.63
2022-10-10T12:15:57.832Z,0.60
2022-10-10T12:18:27.652Z,0.65
2022-10-10T12:21:07.270Z,0.90
2022-10-10T12:23:35.035Z,0.60
2022-10-10T12:26:02.875Z,0.60
2022-10-10T12:28:37.275Z,1.63
2022-10-10T12:31:28.942Z,0.75
2022-10-10T12:34:01.493Z,0.50
2022-10-10T12:37:00.461Z,0.98
2022-10-10T12:39:33.630Z,0.50
2022-10-10T12:42:01.106Z,0.63
2022-10-10T12:44:44.509Z,0.63
2022-10-10T12:47:46.212Z,0.50
2022-10-10T12:50:23.138Z,0.40
2022-10-10T12:52:52.027Z,0.50
2022-10-10T12:55:21.883Z,0.55
2022-10-10T12:57:50.346Z,1.25
2022-10-10T13:00:20.583Z,0.70
2022-10-10T13:02:50.983Z,0.70
2022-10-10T13:05:22.895Z,0.57
2022-10-10T13:07:50.930Z,0.60
2022-10-10T13:10:21.657Z,0.30
2022-10-10T13:12:59.229Z,0.70
2022-10-10T13:15:28.276Z,0.60
2022-10-10T13:17:55.770Z,0.50
2022-10-10T13:20:36.459Z,0.60
2022-10-10T13:23:04.832Z,0.45
2022-10-10T13:25:32.551Z,0.40
2022-10-10T13:28:00.147Z,0.75
2022-10-10T13:30:28.955Z,0.57
2022-10-10T13:32:57.257Z,0.45
2022-10-10T13:35:26.272Z,0.60
2022-10-10T13:37:57.253Z,0.60
2022-10-10T13:40:25.236Z,0.73
2022-10-10T13:42:54.855Z,0.90
2022-10-10T13:45:35.799Z,1.25
2022-10-10T13:48:20.395Z,0.88
2022-10-10T13:50:53.766Z,1.00
2022-10-10T13:53:33.076Z,0.63
2022-10-10T13:56:03.001Z,0.80
2022-10-10T13:58:33.023Z,1.10
2022-10-10T14:01:03.723Z,0.57
2022-10-10T14:03:32.456Z,1.00
2022-10-10T14:06:00.198Z,0.80
2022-10-10T14:08:29.276Z,0.70
2022-10-10T14:11:02.851Z,0.70
2022-10-10T14:13:37.865Z,0.70
2022-10-10T14:16:13.820Z,0.80
2022-10-10T14:18:44.020Z,0.80
2022-10-10T14:21:14.760Z,0.70
2022-10-10T14:23:42.415Z,0.65
2022-10-10T14:26:13.560Z,0.70
2022-10-10T14:28:41.534Z,1.10
2022-10-10T14:31:09.407Z,0.90
2022-10-10T14:33:38.508Z,1.30
2022-10-10T14:36:08.208Z,1.15
2022-10-10T14:38:36.022Z,0.85
2022-10-10T14:41:06.461Z,0.70
2022-10-10T14:43:34.977Z,1.10
2022-10-10T14:46:03.061Z,1.08
2022-10-10T14:48:30.596Z,0.80
2022-10-10T14:51:00.046Z,0.88
2022-10-10T14:53:28.232Z,0.82
2022-10-10T14:55:57.517Z,0.85
2022-10-10T14:58:27.136Z,0.63
2022-10-10T15:00:56.242Z,0.80
2022-10-10T15:03:26.429Z,0.93
2022-10-10T15:05:54.522Z,2.15
2022-10-10T15:08:26.952Z,0.77
2022-10-10T15:10:56.718Z,0.77
2022-10-10T15:13:24.195Z,0.90
2022-10-10T15:15:51.736Z,1.77
2022-10-10T15:18:49.159Z,0.80
2022-10-10T15:21:13.772Z,1.30
2022-10-10T15:23:42.744Z,0.98
2022-10-10T15:26:10.218Z,1.13
2022-10-10T15:28:38.558Z,1.23
2022-10-10T15:31:07.489Z,1.70
2022-10-10T15:33:35.099Z,1.25
2022-10-10T15:36:09.491Z,1.05
2022-10-10T15:38:39.129Z,0.70
2022-10-10T15:41:09.504Z,1.00
2022-10-10T15:43:42.882Z,1.60
2022-10-10T15:46:10.894Z,1.25
2022-10-10T15:48:38.389Z,1.42
2022-10-10T15:51:07.068Z,1.10
2022-10-10T15:53:34.655Z,1.45
2022-10-10T15:56:03.255Z,1.23
2022-10-10T15:58:34.724Z,1.30
2022-10-10T16:01:09.105Z,1.27
2022-10-10T16:06:05.207Z,1.65
2022-10-10T16:08:33.617Z,1.73
2022-10-10T16:11:05.697Z,2.22
2022-10-10T16:13:36.559Z,1.67
2022-10-10T16:16:06.137Z,1.92
2022-10-10T16:18:52.593Z,2.08
2022-10-10T16:21:21.550Z,2.03
2022-10-10T16:23:53.109Z,2.10
2022-10-10T16:26:26.302Z,2.20
2022-10-10T16:28:55.839Z,1.88
2022-10-10T16:31:23.498Z,1.80
2022-10-10T16:33:50.952Z,2.50
2022-10-10T16:36:20.719Z,2.50
2022-10-10T16:38:48.510Z,2.00
2022-10-10T16:41:35.618Z,2.78
2022-10-10T16:44:06.352Z,2.17
2022-10-10T16:46:33.986Z,2.35
2022-10-10T16:49:01.557Z,2.00
2022-10-10T16:51:30.433Z,2.50
2022-10-10T16:54:00.666Z,1.90
2022-10-10T16:56:28.602Z,1.90
2022-10-10T16:58:56.091Z,2.92
2022-10-10T17:01:25.691Z,2.25
2022-10-10T17:03:53.362Z,2.78
2022-10-10T17:06:22.093Z,2.65
2022-10-10T17:08:50.255Z,2.40
2022-10-10T17:11:18.825Z,2.35
2022-10-10T17:13:46.467Z,2.55
2022-10-10T17:16:53.528Z,2.13
2022-10-10T17:19:05.259Z,2.67
2022-10-10T17:21:32.771Z,2.10
2022-10-10T17:24:00.287Z,3.35
2022-10-10T17:26:28.062Z,2.72
2022-10-10T17:28:56.376Z,2.30
2022-10-10T17:31:24.597Z,3.33
2022-10-10T17:33:54.415Z,2.60
2022-10-10T17:36:24.998Z,2.60
2022-10-10T17:38:52.684Z,2.75
2022-10-10T17:41:20.913Z,2.42
2022-10-10T17:43:48.663Z,2.35
2022-10-10T17:46:41.469Z,2.83
2022-10-10T17:49:05.038Z,2.65
2022-10-10T17:51:37.534Z,2.70
2022-10-10T17:54:06.513Z,3.33
2022-10-10T17:56:34.198Z,3.20
2022-10-10T17:59:06.788Z,2.20
2022-10-10T18:01:35.283Z,2.58
2022-10-10T18:04:03.184Z,3.17
2022-10-10T18:06:32.992Z,3.42
2022-10-10T18:09:02.061Z,3.25
2022-10-10T18:11:30.847Z,5.47
2022-10-10T18:14:00.731Z,3.38
2022-10-10T18:16:29.265Z,3.20
2022-10-10T18:18:57.328Z,3.17
2022-10-10T18:21:24.960Z,3.60
2022-10-10T18:23:52.578Z,3.30
2022-10-10T18:26:22.937Z,3.30
2022-10-10T18:28:52.665Z,3.42
2022-10-10T18:31:21.144Z,3.22
2022-10-10T18:33:52.706Z,3.17
2022-10-10T18:36:21.999Z,3.20
2022-10-10T18:38:49.726Z,2.83
2022-10-10T18:41:19.894Z,2.63
2022-10-10T18:43:48.986Z,3.05
2022-10-10T18:46:17.810Z,2.58
2022-10-10T18:48:48.053Z,3.08
2022-10-10T18:51:23.270Z,3.17
2022-10-10T18:53:51.476Z,3.03
2022-10-10T18:56:24.243Z,2.97
2022-10-10T18:58:54.689Z,2.30
2022-10-10T19:01:26.546Z,3.00
2022-10-10T19:04:17.951Z,2.63
2022-10-10T19:06:47.330Z,2.63
2022-10-10T19:09:15.868Z,2.80
2022-10-10T19:11:44.549Z,2.45
2022-10-10T19:14:14.492Z,2.70
2022-10-10T19:16:43.569Z,2.13
2022-10-10T19:19:11.994Z,1.77
2022-10-10T19:21:39.809Z,1.75
2022-10-10T19:24:08.852Z,1.83
2022-10-10T19:26:36.783Z,2.25
2022-10-10T19:29:08.701Z,2.00
2022-10-10T19:31:38.259Z,1.40
2022-10-10T19:34:11.763Z,1.33
2022-10-10T19:36:41.430Z,1.70
2022-10-10T19:39:09.807Z,1.30
2022-10-10T19:41:37.867Z,1.40
2022-10-10T19:44:05.825Z,1.55
2022-10-10T19:46:39.170Z,2.08
2022-10-10T19:49:07.981Z,1.30
2022-10-10T19:51:46.984Z,1.95
2022-10-10T19:54:14.574Z,1.50
2022-10-10T19:56:42.200Z,1.58
2022-10-10T19:59:09.699Z,1.92
2022-10-10T20:01:37.486Z,1.80
2022-10-10T20:04:05.246Z,1.60
2022-10-10T20:06:37.550Z,1.40
2022-10-10T20:09:09.693Z,1.90
2022-10-10T20:11:38.925Z,1.50
2022-10-10T20:14:06.788Z,1.95
2022-10-10T20:16:34.816Z,1.70
2022-10-10T20:19:02.337Z,1.23
2022-10-10T20:21:32.660Z,1.40
2022-10-10T20:24:03.133Z,1.90
2022-10-10T20:26:32.198Z,1.40
2022-10-10T20:29:00.335Z,1.70
2022-10-10T20:31:28.875Z,2.08
2022-10-10T20:33:58.298Z,1.40
2022-10-10T20:36:26.144Z,1.42
2022-10-10T20:38:54.468Z,1.63
2022-10-10T20:41:24.574Z,1.67
2022-10-10T20:43:58.109Z,1.45
2022-10-10T20:46:28.708Z,1.65
2022-10-10T20:48:56.220Z,1.55
2022-10-10T20:51:25.788Z,2.00
2022-10-10T20:53:56.925Z,1.58
2022-10-10T20:56:27.147Z,1.95
2022-10-10T20:58:54.803Z,1.88
2022-10-10T21:01:23.783Z,1.50
2022-10-10T21:03:51.408Z,1.70
2022-10-10T21:06:19.989Z,1.55
2022-10-10T21:08:47.502Z,1.90
2022-10-10T21:11:16.155Z,1.77
2022-10-10T21:13:46.087Z,1.90
2022-10-10T21:16:14.694Z,2.15
2022-10-10T21:18:44.576Z,1.35
2022-10-10T21:21:17.464Z,2.22
2022-10-10T21:23:45.643Z,1.65
2022-10-10T21:26:14.746Z,1.80
2022-10-10T21:28:46.860Z,1.67
2022-10-10T21:31:15.392Z,1.70
2022-10-10T21:33:43.403Z,2.05
2022-10-10T21:36:11.283Z,2.50
2022-10-10T21:38:39.302Z,1.95
2022-10-10T21:41:08.043Z,1.75
2022-10-10T21:43:35.566Z,1.83
2022-10-10T21:46:06.071Z,1.45
2022-10-10T21:48:34.566Z,1.67
2022-10-10T21:51:02.235Z,1.58
2022-10-10T21:53:29.927Z,1.70
2022-10-10T21:55:57.544Z,2.13
2022-10-10T21:58:25.864Z,1.65
2022-10-10T22:00:56.044Z,1.67
2022-10-10T22:03:24.949Z,1.90
2022-10-10T22:05:52.717Z,1.77
2022-10-10T22:08:20.206Z,1.80
2022-10-10T22:10:47.740Z,1.33
2022-10-10T22:13:17.668Z,1.73
2022-10-10T22:15:45.582Z,1.55
2022-10-10T22:18:13.130Z,1.58
2022-10-10T22:20:42.015Z,1.80
2022-10-10T22:23:09.515Z,1.83
2022-10-10T22:25:37.022Z,1.77
2022-10-10T22:28:06.347Z,2.10
2022-10-10T22:30:34.108Z,1.42
2022-10-10T22:33:01.710Z,1.70
2022-10-10T22:35:29.295Z,1.80
2022-10-10T22:37:58.215Z,2.17
2022-10-10T22:40:28.745Z,1.63
2022-10-10T22:42:56.261Z,1.55
2022-10-10T22:45:24.169Z,2.28
2022-10-10T22:47:52.995Z,1.75
2022-10-10T22:50:20.480Z,1.63
2022-10-10T22:52:48.039Z,1.60
2022-10-10T22:55:19.155Z,1.83
2022-10-10T22:57:47.269Z,1.60
2022-10-10T23:00:15.736Z,1.85
2022-10-10T23:02:43.574Z,1.83
2022-10-10T23:05:11.299Z,1.80
2022-10-10T23:07:38.835Z,1.92
2022-10-10T23:10:08.694Z,1.85
2022-10-10T23:12:37.720Z,1.60
2022-10-10T23:15:05.598Z,1.80
2022-10-10T23:17:33.319Z,1.52
2022-10-10T23:20:03.560Z,1.60
2022-10-10T23:22:31.289Z,1.58
2022-10-10T23:24:58.849Z,1.98
2022-10-10T23:27:26.368Z,2.17
2022-10-10T23:29:55.293Z,1.50
2022-10-10T23:32:23.497Z,1.65
2022-10-10T23:34:51.100Z,1.90
2022-10-10T23:37:18.905Z,1.63
2022-10-10T23:39:46.433Z,1.95
2022-10-10T23:42:14.605Z,2.63
2022-10-10T23:44:42.129Z,2.50
2022-10-10T23:47:10.977Z,2.45
2022-10-10T23:49:38.489Z,2.25
2022-10-10T23:52:06.055Z,1.95
2022-10-10T23:54:33.790Z,2.88
2022-10-10T23:57:01.303Z,2.42
2022-10-10T23:59:29.145Z,2.63
